sensor_id;sensor_type;location;lat;lon;timestamp;temperature;humidity
3684;DHT22;1858;48.716;9.648;2023-05-14T00:00:52;13.50;99.90
3684;DHT22;1858;48.716;9.648;2023-05-14T00:03:21;13.50;99.90
3684;DHT22;1858;48.716;9.648;2023-05-14T00:05:49;13.50;99.90
3684;DHT22;1858;48.716;9.648;2023-05-14T00:08:18;13.50;99.90
3684;DHT22;1858;48.716;9.648;2023-05-14T00:10:47;13.40;99.90
3684;DHT22;1858;48.716;9.648;2023-05-14T00:13:15;13.40;99.90
3684;DHT22;1858;48.716;9.648;2023-05-14T00:15:44;13.30;99.90
3684;DHT22;1858;48.716;9.648;2023-05-14T00:18:12;13.30;99.90
3684;DHT22;1858;48.716;9.648;2023-05-14T00:20:41;13.30;99.90
3684;DHT22;1858;48.716;9.648;2023-05-14T00:23:10;13.30;99.90
3684;DHT22;1858;48.716;9.648;2023-05-14T00:25:38;13.30;99.90
3684;DHT22;1858;48.716;9.648;2023-05-14T00:28:07;13.30;99.90
3684;DHT22;1858;48.716;9.648;2023-05-14T00:30:35;13.30;99.90
3684;DHT22;1858;48.716;9.648;2023-05-14T00:33:04;13.30;99.90
3684;DHT22;1858;48.716;9.648;2023-05-14T00:35:33;13.20;99.90
3684;DHT22;1858;48.716;9.648;2023-05-14T00:38:02;13.20;99.90
3684;DHT22;1858;48.716;9.648;2023-05-14T00:40:31;13.20;99.90
3684;DHT22;1858;48.716;9.648;2023-05-14T00:42:59;13.30;99.90
3684;DHT22;1858;48.716;9.648;2023-05-14T00:45:28;13.30;99.90
3684;DHT22;1858;48.716;9.648;2023-05-14T00:47:56;13.30;92.20
3684;DHT22;1858;48.716;9.648;2023-05-14T00:50:25;13.30;99.90
3684;DHT22;1858;48.716;9.648;2023-05-14T00:52:54;13.30;99.90
3684;DHT22;1858;48.716;9.648;2023-05-14T00:55:22;13.40;99.90
3684;DHT22;1858;48.716;9.648;2023-05-14T00:57:53;13.40;99.90
3684;DHT22;1858;48.716;9.648;2023-05-14T01:00:21;13.40;99.90
3684;DHT22;1858;48.716;9.648;2023-05-14T01:02:50;13.30;99.90
3684;DHT22;1858;48.716;9.648;2023-05-14T01:05:19;13.30;99.90
3684;DHT22;1858;48.716;9.648;2023-05-14T01:08:12;13.30;99.90
3684;DHT22;1858;48.716;9.648;2023-05-14T01:10:50;13.30;99.90
3684;DHT22;1858;48.716;9.648;2023-05-14T01:13:30;13.20;99.90
3684;DHT22;1858;48.716;9.648;2023-05-14T01:18:43;13.20;99.90
3684;DHT22;1858;48.716;9.648;2023-05-14T01:21:38;13.20;99.90
3684;DHT22;1858;48.716;9.648;2023-05-14T01:23:52;13.10;99.90
3684;DHT22;1858;48.716;9.648;2023-05-14T01:26:20;13.10;99.90
3684;DHT22;1858;48.716;9.648;2023-05-14T01:28:51;13.10;99.90
3684;DHT22;1858;48.716;9.648;2023-05-14T01:31:21;13.10;99.90
3684;DHT22;1858;48.716;9.648;2023-05-14T01:33:55;13.00;99.90
3684;DHT22;1858;48.716;9.648;2023-05-14T01:36:26;13.10;99.90
3684;DHT22;1858;48.716;9.648;2023-05-14T01:38:56;13.10;99.90
3684;DHT22;1858;48.716;9.648;2023-05-14T01:41:26;13.10;99.90
3684;DHT22;1858;48.716;9.648;2023-05-14T01:43:56;13.00;99.90
3684;DHT22;1858;48.716;9.648;2023-05-14T01:46:25;13.00;99.50
3684;DHT22;1858;48.716;9.648;2023-05-14T01:48:53;13.00;99.90
3684;DHT22;1858;48.716;9.648;2023-05-14T01:51:21;13.00;99.90
3684;DHT22;1858;48.716;9.648;2023-05-14T01:53:50;13.00;99.90
3684;DHT22;1858;48.716;9.648;2023-05-14T01:56:20;13.00;99.90
3684;DHT22;1858;48.716;9.648;2023-05-14T01:58:49;13.00;99.90
3684;DHT22;1858;48.716;9.648;2023-05-14T02:01:18;12.90;99.90
3684;DHT22;1858;48.716;9.648;2023-05-14T02:03:47;13.00;99.90
3684;DHT22;1858;48.716;9.648;2023-05-14T02:06:15;13.00;99.90
3684;DHT22;1858;48.716;9.648;2023-05-14T02:08:43;13.00;99.90
3684;DHT22;1858;48.716;9.648;2023-05-14T02:11:12;13.00;99.90
3684;DHT22;1858;48.716;9.648;2023-05-14T02:13:40;13.00;99.90
3684;DHT22;1858;48.716;9.648;2023-05-14T02:16:09;13.10;99.90
3684;DHT22;1858;48.716;9.648;2023-05-14T02:18:37;13.10;99.90
3684;DHT22;1858;48.716;9.648;2023-05-14T02:21:05;13.10;99.90
3684;DHT22;1858;48.716;9.648;2023-05-14T02:23:34;13.10;99.90
3684;DHT22;1858;48.716;9.648;2023-05-14T02:26:02;13.10;99.90
3684;DHT22;1858;48.716;9.648;2023-05-14T02:28:30;13.10;99.90
3684;DHT22;1858;48.716;9.648;2023-05-14T02:30:59;13.10;99.90
3684;DHT22;1858;48.716;9.648;2023-05-14T02:33:27;13.10;99.90
3684;DHT22;1858;48.716;9.648;2023-05-14T02:35:56;13.20;99.90
3684;DHT22;1858;48.716;9.648;2023-05-14T02:38:25;13.20;99.90
3684;DHT22;1858;48.716;9.648;2023-05-14T02:40:53;13.20;99.90
3684;DHT22;1858;48.716;9.648;2023-05-14T02:43:22;13.20;96.60
3684;DHT22;1858;48.716;9.648;2023-05-14T02:45:51;13.20;72.10
3684;DHT22;1858;48.716;9.648;2023-05-14T02:48:19;13.20;87.20
3684;DHT22;1858;48.716;9.648;2023-05-14T02:50:49;13.20;92.10
3684;DHT22;1858;48.716;9.648;2023-05-14T02:53:18;13.20;99.90
3684;DHT22;1858;48.716;9.648;2023-05-14T02:55:46;13.20;99.90
3684;DHT22;1858;48.716;9.648;2023-05-14T02:58:15;13.20;99.90
3684;DHT22;1858;48.716;9.648;2023-05-14T03:00:43;13.20;99.90
3684;DHT22;1858;48.716;9.648;2023-05-14T03:03:12;13.20;99.90
3684;DHT22;1858;48.716;9.648;2023-05-14T03:05:40;13.20;99.90
3684;DHT22;1858;48.716;9.648;2023-05-14T03:08:08;13.20;99.90
3684;DHT22;1858;48.716;9.648;2023-05-14T03:10:37;13.20;70.70
3684;DHT22;1858;48.716;9.648;2023-05-14T03:13:05;13.20;58.10
3684;DHT22;1858;48.716;9.648;2023-05-14T03:15:34;13.20;59.70
3684;DHT22;1858;48.716;9.648;2023-05-14T03:18:02;13.10;26.70
3684;DHT22;1858;48.716;9.648;2023-05-14T03:20:31;13.10;35.20
3684;DHT22;1858;48.716;9.648;2023-05-14T03:22:59;13.10;70.70
3684;DHT22;1858;48.716;9.648;2023-05-14T03:25:27;13.10;99.90
3684;DHT22;1858;48.716;9.648;2023-05-14T03:27:56;13.10;99.90
3684;DHT22;1858;48.716;9.648;2023-05-14T03:30:25;13.10;99.90
3684;DHT22;1858;48.716;9.648;2023-05-14T03:32:53;13.10;93.30
3684;DHT22;1858;48.716;9.648;2023-05-14T03:35:22;13.10;50.50
3684;DHT22;1858;48.716;9.648;2023-05-14T03:37:50;13.00;2.40
3684;DHT22;1858;48.716;9.648;2023-05-14T03:40:19;13.00;25.40
3684;DHT22;1858;48.716;9.648;2023-05-14T03:42:47;12.90;1.00
3684;DHT22;1858;48.716;9.648;2023-05-14T03:45:16;12.90;1.00
3684;DHT22;1858;48.716;9.648;2023-05-14T03:47:45;12.80;1.00
3684;DHT22;1858;48.716;9.648;2023-05-14T03:50:13;12.70;1.00
3684;DHT22;1858;48.716;9.648;2023-05-14T03:52:42;12.70;1.00
3684;DHT22;1858;48.716;9.648;2023-05-14T03:55:12;12.60;1.00
3684;DHT22;1858;48.716;9.648;2023-05-14T03:57:41;12.60;1.00
3684;DHT22;1858;48.716;9.648;2023-05-14T04:00:11;12.60;1.00
3684;DHT22;1858;48.716;9.648;2023-05-14T04:02:39;12.50;1.70
3684;DHT22;1858;48.716;9.648;2023-05-14T04:05:07;12.40;23.30
3684;DHT22;1858;48.716;9.648;2023-05-14T04:07:36;12.40;99.90
3684;DHT22;1858;48.716;9.648;2023-05-14T04:10:06;12.20;99.90
3684;DHT22;1858;48.716;9.648;2023-05-14T04:12:35;12.20;99.90
3684;DHT22;1858;48.716;9.648;2023-05-14T04:15:03;12.10;99.90
3684;DHT22;1858;48.716;9.648;2023-05-14T04:17:33;12.10;99.90
3684;DHT22;1858;48.716;9.648;2023-05-14T04:20:03;12.10;99.90
3684;DHT22;1858;48.716;9.648;2023-05-14T04:22:32;12.10;99.90
3684;DHT22;1858;48.716;9.648;2023-05-14T04:25:01;12.10;99.90
3684;DHT22;1858;48.716;9.648;2023-05-14T04:27:30;12.10;99.90
3684;DHT22;1858;48.716;9.648;2023-05-14T04:29:58;12.20;99.90
3684;DHT22;1858;48.716;9.648;2023-05-14T04:32:27;12.20;99.90
3684;DHT22;1858;48.716;9.648;2023-05-14T04:34:56;12.20;99.90
3684;DHT22;1858;48.716;9.648;2023-05-14T04:37:25;12.20;99.90
3684;DHT22;1858;48.716;9.648;2023-05-14T04:39:54;12.20;99.90
3684;DHT22;1858;48.716;9.648;2023-05-14T04:42:23;12.20;99.90
3684;DHT22;1858;48.716;9.648;2023-05-14T04:44:52;12.20;99.90
3684;DHT22;1858;48.716;9.648;2023-05-14T04:47:20;12.10;99.90
3684;DHT22;1858;48.716;9.648;2023-05-14T04:49:49;12.20;99.90
3684;DHT22;1858;48.716;9.648;2023-05-14T04:52:18;12.20;99.90
3684;DHT22;1858;48.716;9.648;2023-05-14T04:54:48;12.20;99.90
3684;DHT22;1858;48.716;9.648;2023-05-14T04:57:16;12.20;99.90
3684;DHT22;1858;48.716;9.648;2023-05-14T04:59:45;12.20;99.90
3684;DHT22;1858;48.716;9.648;2023-05-14T05:02:13;12.20;99.90
3684;DHT22;1858;48.716;9.648;2023-05-14T05:04:42;12.20;58.50
3684;DHT22;1858;48.716;9.648;2023-05-14T05:07:11;12.20;99.90
3684;DHT22;1858;48.716;9.648;2023-05-14T05:09:42;12.20;94.90
3684;DHT22;1858;48.716;9.648;2023-05-14T05:12:10;12.20;99.90
3684;DHT22;1858;48.716;9.648;2023-05-14T05:14:39;12.20;99.90
3684;DHT22;1858;48.716;9.648;2023-05-14T05:17:08;12.10;99.90
3684;DHT22;1858;48.716;9.648;2023-05-14T05:19:37;12.30;99.90
3684;DHT22;1858;48.716;9.648;2023-05-14T05:22:05;12.30;99.90
3684;DHT22;1858;48.716;9.648;2023-05-14T05:24:34;12.40;95.40
3684;DHT22;1858;48.716;9.648;2023-05-14T05:27:02;12.40;57.50
3684;DHT22;1858;48.716;9.648;2023-05-14T05:29:32;12.40;32.10
3684;DHT22;1858;48.716;9.648;2023-05-14T05:32:00;12.40;29.90
3684;DHT22;1858;48.716;9.648;2023-05-14T05:34:29;12.50;24.10
3684;DHT22;1858;48.716;9.648;2023-05-14T05:36:57;12.50;1.00
3684;DHT22;1858;48.716;9.648;2023-05-14T05:39:26;12.50;1.00
3684;DHT22;1858;48.716;9.648;2023-05-14T05:41:54;12.50;1.00
3684;DHT22;1858;48.716;9.648;2023-05-14T05:44:23;12.50;1.00
3684;DHT22;1858;48.716;9.648;2023-05-14T05:46:51;12.60;1.00
3684;DHT22;1858;48.716;9.648;2023-05-14T05:49:22;12.60;1.00
3684;DHT22;1858;48.716;9.648;2023-05-14T05:51:50;12.70;1.00
3684;DHT22;1858;48.716;9.648;2023-05-14T05:54:18;12.70;1.00
3684;DHT22;1858;48.716;9.648;2023-05-14T05:56:50;12.80;1.00
3684;DHT22;1858;48.716;9.648;2023-05-14T05:59:18;12.90;1.00
3684;DHT22;1858;48.716;9.648;2023-05-14T06:01:47;13.00;1.00
3684;DHT22;1858;48.716;9.648;2023-05-14T06:04:16;13.20;1.00
3684;DHT22;1858;48.716;9.648;2023-05-14T06:06:45;13.40;1.00
3684;DHT22;1858;48.716;9.648;2023-05-14T06:09:13;13.50;1.00
3684;DHT22;1858;48.716;9.648;2023-05-14T06:11:42;13.60;1.00
3684;DHT22;1858;48.716;9.648;2023-05-14T06:14:10;13.70;1.00
3684;DHT22;1858;48.716;9.648;2023-05-14T06:16:39;13.70;99.90
3684;DHT22;1858;48.716;9.648;2023-05-14T06:19:07;13.90;99.90
3684;DHT22;1858;48.716;9.648;2023-05-14T06:21:38;14.00;99.90
3684;DHT22;1858;48.716;9.648;2023-05-14T06:24:11;14.10;99.90
3684;DHT22;1858;48.716;9.648;2023-05-14T06:26:38;14.30;99.90
3684;DHT22;1858;48.716;9.648;2023-05-14T06:29:07;14.40;99.90
3684;DHT22;1858;48.716;9.648;2023-05-14T06:31:36;14.50;99.90
3684;DHT22;1858;48.716;9.648;2023-05-14T06:34:05;14.60;99.90
3684;DHT22;1858;48.716;9.648;2023-05-14T06:36:34;14.70;99.90
3684;DHT22;1858;48.716;9.648;2023-05-14T06:39:03;14.70;99.90
3684;DHT22;1858;48.716;9.648;2023-05-14T06:41:31;14.80;99.90
3684;DHT22;1858;48.716;9.648;2023-05-14T06:44:00;14.80;99.90
3684;DHT22;1858;48.716;9.648;2023-05-14T06:46:29;14.80;99.90
3684;DHT22;1858;48.716;9.648;2023-05-14T06:48:58;14.90;99.90
3684;DHT22;1858;48.716;9.648;2023-05-14T06:51:27;14.90;99.90
3684;DHT22;1858;48.716;9.648;2023-05-14T06:53:55;15.00;99.90
3684;DHT22;1858;48.716;9.648;2023-05-14T06:56:24;15.10;99.90
3684;DHT22;1858;48.716;9.648;2023-05-14T06:58:53;15.10;99.90
3684;DHT22;1858;48.716;9.648;2023-05-14T07:01:21;15.10;83.10
3684;DHT22;1858;48.716;9.648;2023-05-14T07:03:50;15.00;69.50
3684;DHT22;1858;48.716;9.648;2023-05-14T07:06:19;15.10;86.80
3684;DHT22;1858;48.716;9.648;2023-05-14T07:08:47;15.20;99.90
3684;DHT22;1858;48.716;9.648;2023-05-14T07:11:16;15.20;63.50
3684;DHT22;1858;48.716;9.648;2023-05-14T07:13:45;15.40;48.20
3684;DHT22;1858;48.716;9.648;2023-05-14T07:16:13;15.50;26.80
3684;DHT22;1858;48.716;9.648;2023-05-14T07:18:44;15.60;1.00
3684;DHT22;1858;48.716;9.648;2023-05-14T07:21:32;15.70;1.00
3684;DHT22;1858;48.716;9.648;2023-05-14T07:24:00;15.80;1.00
3684;DHT22;1858;48.716;9.648;2023-05-14T07:26:29;15.90;1.00
3684;DHT22;1858;48.716;9.648;2023-05-14T07:28:57;16.10;1.00
3684;DHT22;1858;48.716;9.648;2023-05-14T07:31:26;16.20;1.00
3684;DHT22;1858;48.716;9.648;2023-05-14T07:33:54;16.30;1.00
3684;DHT22;1858;48.716;9.648;2023-05-14T07:36:23;16.30;1.00
3684;DHT22;1858;48.716;9.648;2023-05-14T07:38:52;16.30;1.00
3684;DHT22;1858;48.716;9.648;2023-05-14T07:41:20;16.50;1.00
3684;DHT22;1858;48.716;9.648;2023-05-14T07:43:49;16.60;1.00
3684;DHT22;1858;48.716;9.648;2023-05-14T07:46:20;16.90;1.00
3684;DHT22;1858;48.716;9.648;2023-05-14T07:48:50;17.10;1.00
3684;DHT22;1858;48.716;9.648;2023-05-14T07:51:18;17.40;1.00
3684;DHT22;1858;48.716;9.648;2023-05-14T07:53:46;18.40;1.00
3684;DHT22;1858;48.716;9.648;2023-05-14T07:56:15;19.40;1.00
3684;DHT22;1858;48.716;9.648;2023-05-14T07:58:44;20.20;1.00
3684;DHT22;1858;48.716;9.648;2023-05-14T08:01:13;21.00;99.90
3684;DHT22;1858;48.716;9.648;2023-05-14T08:03:42;21.40;99.90
3684;DHT22;1858;48.716;9.648;2023-05-14T08:06:14;21.50;99.90
3684;DHT22;1858;48.716;9.648;2023-05-14T08:08:45;21.50;99.90
3684;DHT22;1858;48.716;9.648;2023-05-14T08:11:13;21.30;99.90
3684;DHT22;1858;48.716;9.648;2023-05-14T08:13:42;20.80;99.90
3684;DHT22;1858;48.716;9.648;2023-05-14T08:16:10;20.60;99.90
3684;DHT22;1858;48.716;9.648;2023-05-14T08:18:39;20.50;99.90
3684;DHT22;1858;48.716;9.648;2023-05-14T08:21:08;20.30;99.90
3684;DHT22;1858;48.716;9.648;2023-05-14T08:23:36;19.90;99.90
3684;DHT22;1858;48.716;9.648;2023-05-14T08:26:08;19.60;99.90
3684;DHT22;1858;48.716;9.648;2023-05-14T08:28:37;19.40;99.90
3684;DHT22;1858;48.716;9.648;2023-05-14T08:31:05;19.20;99.90
3684;DHT22;1858;48.716;9.648;2023-05-14T08:33:34;19.10;99.90
3684;DHT22;1858;48.716;9.648;2023-05-14T08:36:05;19.30;99.90
3684;DHT22;1858;48.716;9.648;2023-05-14T08:38:33;19.50;99.90
3684;DHT22;1858;48.716;9.648;2023-05-14T08:41:04;19.80;99.90
3684;DHT22;1858;48.716;9.648;2023-05-14T08:43:42;20.00;99.90
3684;DHT22;1858;48.716;9.648;2023-05-14T08:46:08;20.10;99.90
3684;DHT22;1858;48.716;9.648;2023-05-14T08:48:39;20.20;99.90
3684;DHT22;1858;48.716;9.648;2023-05-14T08:51:09;20.40;99.90
3684;DHT22;1858;48.716;9.648;2023-05-14T08:53:38;20.60;99.90
3684;DHT22;1858;48.716;9.648;2023-05-14T08:56:08;20.70;99.90
3684;DHT22;1858;48.716;9.648;2023-05-14T08:58:37;20.80;99.90
3684;DHT22;1858;48.716;9.648;2023-05-14T09:01:05;20.80;99.90
3684;DHT22;1858;48.716;9.648;2023-05-14T09:03:34;20.70;99.90
3684;DHT22;1858;48.716;9.648;2023-05-14T09:06:03;20.50;99.90
3684;DHT22;1858;48.716;9.648;2023-05-14T09:08:34;20.30;99.90
3684;DHT22;1858;48.716;9.648;2023-05-14T09:11:03;19.90;99.90
3684;DHT22;1858;48.716;9.648;2023-05-14T09:13:31;19.90;99.90
3684;DHT22;1858;48.716;9.648;2023-05-14T09:16:01;19.80;99.90
3684;DHT22;1858;48.716;9.648;2023-05-14T09:18:51;19.60;99.90
3684;DHT22;1858;48.716;9.648;2023-05-14T09:21:20;19.70;99.90
3684;DHT22;1858;48.716;9.648;2023-05-14T09:23:52;19.70;99.90
3684;DHT22;1858;48.716;9.648;2023-05-14T09:26:24;19.80;99.90
3684;DHT22;1858;48.716;9.648;2023-05-14T09:28:55;19.80;99.90
3684;DHT22;1858;48.716;9.648;2023-05-14T09:31:31;20.00;99.90
3684;DHT22;1858;48.716;9.648;2023-05-14T09:34:00;19.90;99.90
3684;DHT22;1858;48.716;9.648;2023-05-14T09:36:29;19.90;99.90
3684;DHT22;1858;48.716;9.648;2023-05-14T09:38:58;20.10;99.90
3684;DHT22;1858;48.716;9.648;2023-05-14T09:41:27;20.50;99.90
3684;DHT22;1858;48.716;9.648;2023-05-14T09:43:56;20.90;99.90
3684;DHT22;1858;48.716;9.648;2023-05-14T09:46:24;21.70;99.90
3684;DHT22;1858;48.716;9.648;2023-05-14T09:48:55;22.50;99.90
3684;DHT22;1858;48.716;9.648;2023-05-14T09:51:26;23.10;99.90
3684;DHT22;1858;48.716;9.648;2023-05-14T09:53:58;23.50;99.90
3684;DHT22;1858;48.716;9.648;2023-05-14T09:56:27;23.50;99.90
3684;DHT22;1858;48.716;9.648;2023-05-14T09:58:56;23.70;99.90
3684;DHT22;1858;48.716;9.648;2023-05-14T10:01:25;23.60;99.90
3684;DHT22;1858;48.716;9.648;2023-05-14T10:03:56;23.60;99.90
3684;DHT22;1858;48.716;9.648;2023-05-14T10:06:29;23.60;99.90
3684;DHT22;1858;48.716;9.648;2023-05-14T10:09:03;23.70;99.90
3684;DHT22;1858;48.716;9.648;2023-05-14T10:11:33;24.90;99.90
3684;DHT22;1858;48.716;9.648;2023-05-14T10:14:17;25.10;99.90
3684;DHT22;1858;48.716;9.648;2023-05-14T10:16:49;25.70;99.90
3684;DHT22;1858;48.716;9.648;2023-05-14T10:19:16;26.80;99.90
3684;DHT22;1858;48.716;9.648;2023-05-14T10:21:47;28.40;99.90
3684;DHT22;1858;48.716;9.648;2023-05-14T10:24:17;30.00;93.10
3684;DHT22;1858;48.716;9.648;2023-05-14T10:26:52;30.70;99.90
3684;DHT22;1858;48.716;9.648;2023-05-14T10:29:32;29.70;62.80
3684;DHT22;1858;48.716;9.648;2023-05-14T10:31:54;28.80;49.10
3684;DHT22;1858;48.716;9.648;2023-05-14T10:34:31;28.00;86.10
3684;DHT22;1858;48.716;9.648;2023-05-14T10:37:02;27.00;72.90
3684;DHT22;1858;48.716;9.648;2023-05-14T10:42:27;25.80;95.80
3684;DHT22;1858;48.716;9.648;2023-05-14T10:44:59;25.60;96.20
3684;DHT22;1858;48.716;9.648;2023-05-14T10:47:29;25.50;99.90
3684;DHT22;1858;48.716;9.648;2023-05-14T10:50:00;25.30;99.90
3684;DHT22;1858;48.716;9.648;2023-05-14T10:52:30;25.30;99.90
3684;DHT22;1858;48.716;9.648;2023-05-14T10:55:13;25.10;99.90
3684;DHT22;1858;48.716;9.648;2023-05-14T10:57:43;25.40;99.90
3684;DHT22;1858;48.716;9.648;2023-05-14T11:00:14;25.40;99.90
3684;DHT22;1858;48.716;9.648;2023-05-14T11:02:44;25.30;99.90
3684;DHT22;1858;48.716;9.648;2023-05-14T11:05:15;24.70;99.90
3684;DHT22;1858;48.716;9.648;2023-05-14T11:07:46;24.00;99.90
3684;DHT22;1858;48.716;9.648;2023-05-14T11:10:16;23.60;99.90
3684;DHT22;1858;48.716;9.648;2023-05-14T11:12:47;23.30;99.90
3684;DHT22;1858;48.716;9.648;2023-05-14T11:15:36;23.10;99.90
3684;DHT22;1858;48.716;9.648;2023-05-14T11:18:08;22.70;99.90
3684;DHT22;1858;48.716;9.648;2023-05-14T11:20:37;22.70;99.90
3684;DHT22;1858;48.716;9.648;2023-05-14T11:23:08;22.80;99.90
3684;DHT22;1858;48.716;9.648;2023-05-14T11:25:37;22.60;99.90
3684;DHT22;1858;48.716;9.648;2023-05-14T11:28:06;22.70;99.90
3684;DHT22;1858;48.716;9.648;2023-05-14T11:30:35;22.80;99.90
3684;DHT22;1858;48.716;9.648;2023-05-14T11:33:05;23.00;99.90
3684;DHT22;1858;48.716;9.648;2023-05-14T11:35:35;23.00;99.90
3684;DHT22;1858;48.716;9.648;2023-05-14T11:38:04;22.90;99.90
3684;DHT22;1858;48.716;9.648;2023-05-14T11:40:33;22.60;99.90
3684;DHT22;1858;48.716;9.648;2023-05-14T11:43:03;22.10;99.90
3684;DHT22;1858;48.716;9.648;2023-05-14T11:45:32;21.80;99.90
3684;DHT22;1858;48.716;9.648;2023-05-14T11:48:00;21.60;99.90
3684;DHT22;1858;48.716;9.648;2023-05-14T11:50:29;21.60;99.90
3684;DHT22;1858;48.716;9.648;2023-05-14T11:53:00;21.60;99.90
3684;DHT22;1858;48.716;9.648;2023-05-14T11:55:29;21.70;99.90
3684;DHT22;1858;48.716;9.648;2023-05-14T11:57:58;21.90;99.90
3684;DHT22;1858;48.716;9.648;2023-05-14T12:00:27;22.10;99.90
3684;DHT22;1858;48.716;9.648;2023-05-14T12:02:58;22.00;99.90
3684;DHT22;1858;48.716;9.648;2023-05-14T12:05:26;22.10;99.90
3684;DHT22;1858;48.716;9.648;2023-05-14T12:07:54;22.30;99.90
3684;DHT22;1858;48.716;9.648;2023-05-14T12:10:23;22.40;99.90
3684;DHT22;1858;48.716;9.648;2023-05-14T12:12:51;22.50;99.90
3684;DHT22;1858;48.716;9.648;2023-05-14T12:15:21;22.70;99.90
3684;DHT22;1858;48.716;9.648;2023-05-14T12:17:50;22.70;99.90
3684;DHT22;1858;48.716;9.648;2023-05-14T12:20:18;22.90;99.90
3684;DHT22;1858;48.716;9.648;2023-05-14T12:22:47;22.90;99.90
3684;DHT22;1858;48.716;9.648;2023-05-14T12:25:15;22.50;99.90
3684;DHT22;1858;48.716;9.648;2023-05-14T12:27:44;22.60;99.90
3684;DHT22;1858;48.716;9.648;2023-05-14T12:30:13;22.40;99.90
3684;DHT22;1858;48.716;9.648;2023-05-14T12:32:42;22.60;99.90
3684;DHT22;1858;48.716;9.648;2023-05-14T12:35:13;22.60;99.90
3684;DHT22;1858;48.716;9.648;2023-05-14T12:37:41;22.50;99.90
3684;DHT22;1858;48.716;9.648;2023-05-14T12:40:11;22.70;99.90
3684;DHT22;1858;48.716;9.648;2023-05-14T12:42:42;23.00;99.90
3684;DHT22;1858;48.716;9.648;2023-05-14T12:45:10;23.00;99.90
3684;DHT22;1858;48.716;9.648;2023-05-14T12:47:39;23.20;99.90
3684;DHT22;1858;48.716;9.648;2023-05-14T12:50:08;23.50;99.90
3684;DHT22;1858;48.716;9.648;2023-05-14T12:52:37;23.70;99.90
3684;DHT22;1858;48.716;9.648;2023-05-14T12:55:06;23.70;99.90
3684;DHT22;1858;48.716;9.648;2023-05-14T12:57:42;23.60;99.90
3684;DHT22;1858;48.716;9.648;2023-05-14T13:00:08;23.30;99.90
3684;DHT22;1858;48.716;9.648;2023-05-14T13:02:37;23.10;99.90
3684;DHT22;1858;48.716;9.648;2023-05-14T13:05:07;23.10;99.90
3684;DHT22;1858;48.716;9.648;2023-05-14T13:07:35;23.10;99.90
3684;DHT22;1858;48.716;9.648;2023-05-14T13:10:04;22.80;99.90
3684;DHT22;1858;48.716;9.648;2023-05-14T13:12:33;22.90;99.90
3684;DHT22;1858;48.716;9.648;2023-05-14T13:15:02;23.00;99.90
3684;DHT22;1858;48.716;9.648;2023-05-14T13:17:32;22.90;99.90
3684;DHT22;1858;48.716;9.648;2023-05-14T13:20:00;22.90;99.90
3684;DHT22;1858;48.716;9.648;2023-05-14T13:22:29;22.70;99.90
3684;DHT22;1858;48.716;9.648;2023-05-14T13:24:57;22.70;99.90
3684;DHT22;1858;48.716;9.648;2023-05-14T13:27:26;22.70;99.90
3684;DHT22;1858;48.716;9.648;2023-05-14T13:29:55;22.90;99.90
3684;DHT22;1858;48.716;9.648;2023-05-14T13:32:25;22.80;99.90
3684;DHT22;1858;48.716;9.648;2023-05-14T13:34:56;22.50;99.90
3684;DHT22;1858;48.716;9.648;2023-05-14T13:37:25;22.10;99.90
3684;DHT22;1858;48.716;9.648;2023-05-14T13:39:54;21.90;99.90
3684;DHT22;1858;48.716;9.648;2023-05-14T13:42:22;21.60;99.90
3684;DHT22;1858;48.716;9.648;2023-05-14T13:44:51;21.40;99.90
3684;DHT22;1858;48.716;9.648;2023-05-14T13:47:19;21.30;99.90
3684;DHT22;1858;48.716;9.648;2023-05-14T13:49:48;21.50;99.90
3684;DHT22;1858;48.716;9.648;2023-05-14T13:52:16;21.80;99.90
3684;DHT22;1858;48.716;9.648;2023-05-14T13:54:45;22.00;99.90
3684;DHT22;1858;48.716;9.648;2023-05-14T13:57:14;22.10;99.90
3684;DHT22;1858;48.716;9.648;2023-05-14T13:59:42;22.10;99.90
3684;DHT22;1858;48.716;9.648;2023-05-14T14:02:11;21.90;99.90
3684;DHT22;1858;48.716;9.648;2023-05-14T14:04:39;21.80;99.90
3684;DHT22;1858;48.716;9.648;2023-05-14T14:07:08;21.80;99.90
3684;DHT22;1858;48.716;9.648;2023-05-14T14:09:37;21.90;99.90
3684;DHT22;1858;48.716;9.648;2023-05-14T14:12:09;21.90;99.90
3684;DHT22;1858;48.716;9.648;2023-05-14T14:14:37;21.60;99.90
3684;DHT22;1858;48.716;9.648;2023-05-14T14:17:06;21.70;99.90
3684;DHT22;1858;48.716;9.648;2023-05-14T14:19:35;21.70;99.90
3684;DHT22;1858;48.716;9.648;2023-05-14T14:22:09;21.70;99.90
3684;DHT22;1858;48.716;9.648;2023-05-14T14:24:38;21.50;99.90
3684;DHT22;1858;48.716;9.648;2023-05-14T14:27:11;21.60;99.90
3684;DHT22;1858;48.716;9.648;2023-05-14T14:29:39;21.90;99.90
3684;DHT22;1858;48.716;9.648;2023-05-14T14:32:08;21.90;99.90
3684;DHT22;1858;48.716;9.648;2023-05-14T14:34:37;21.70;99.90
3684;DHT22;1858;48.716;9.648;2023-05-14T14:37:06;21.40;99.90
3684;DHT22;1858;48.716;9.648;2023-05-14T14:39:34;21.10;99.90
3684;DHT22;1858;48.716;9.648;2023-05-14T14:42:03;20.90;99.90
3684;DHT22;1858;48.716;9.648;2023-05-14T14:44:32;20.60;99.90
3684;DHT22;1858;48.716;9.648;2023-05-14T14:47:01;20.40;99.90
3684;DHT22;1858;48.716;9.648;2023-05-14T14:49:29;20.40;99.90
3684;DHT22;1858;48.716;9.648;2023-05-14T14:51:58;20.40;99.90
3684;DHT22;1858;48.716;9.648;2023-05-14T14:54:27;20.30;99.90
3684;DHT22;1858;48.716;9.648;2023-05-14T14:56:55;20.10;99.90
3684;DHT22;1858;48.716;9.648;2023-05-14T14:59:24;20.00;99.90
3684;DHT22;1858;48.716;9.648;2023-05-14T15:01:53;19.80;99.90
3684;DHT22;1858;48.716;9.648;2023-05-14T15:04:21;19.70;99.90
3684;DHT22;1858;48.716;9.648;2023-05-14T15:06:50;19.70;99.90
3684;DHT22;1858;48.716;9.648;2023-05-14T15:09:18;19.50;99.90
3684;DHT22;1858;48.716;9.648;2023-05-14T15:11:46;19.50;99.90
3684;DHT22;1858;48.716;9.648;2023-05-14T15:14:15;19.30;99.90
3684;DHT22;1858;48.716;9.648;2023-05-14T15:16:43;19.20;99.90
3684;DHT22;1858;48.716;9.648;2023-05-14T15:19:12;19.00;99.90
3684;DHT22;1858;48.716;9.648;2023-05-14T15:21:41;18.90;99.90
3684;DHT22;1858;48.716;9.648;2023-05-14T15:24:11;18.80;99.90
3684;DHT22;1858;48.716;9.648;2023-05-14T15:26:44;18.50;99.90
3684;DHT22;1858;48.716;9.648;2023-05-14T15:29:13;18.60;99.90
3684;DHT22;1858;48.716;9.648;2023-05-14T15:31:41;18.70;99.90
3684;DHT22;1858;48.716;9.648;2023-05-14T15:34:11;18.70;99.90
3684;DHT22;1858;48.716;9.648;2023-05-14T15:36:40;18.80;99.90
3684;DHT22;1858;48.716;9.648;2023-05-14T15:39:08;19.00;99.90
3684;DHT22;1858;48.716;9.648;2023-05-14T15:41:37;19.00;99.90
3684;DHT22;1858;48.716;9.648;2023-05-14T15:44:05;19.20;99.90
3684;DHT22;1858;48.716;9.648;2023-05-14T15:46:34;19.30;99.90
3684;DHT22;1858;48.716;9.648;2023-05-14T15:49:04;19.30;99.90
3684;DHT22;1858;48.716;9.648;2023-05-14T15:51:33;19.50;99.90
3684;DHT22;1858;48.716;9.648;2023-05-14T15:54:02;19.50;99.90
3684;DHT22;1858;48.716;9.648;2023-05-14T15:56:30;19.30;99.90
3684;DHT22;1858;48.716;9.648;2023-05-14T15:59:01;19.20;99.90
3684;DHT22;1858;48.716;9.648;2023-05-14T16:01:30;19.20;99.90
3684;DHT22;1858;48.716;9.648;2023-05-14T16:03:59;19.20;99.90
3684;DHT22;1858;48.716;9.648;2023-05-14T16:06:27;19.20;99.90
3684;DHT22;1858;48.716;9.648;2023-05-14T16:08:56;19.10;99.90
3684;DHT22;1858;48.716;9.648;2023-05-14T16:11:26;18.90;99.90
3684;DHT22;1858;48.716;9.648;2023-05-14T16:13:55;18.80;99.90
3684;DHT22;1858;48.716;9.648;2023-05-14T16:16:25;18.70;99.90
3684;DHT22;1858;48.716;9.648;2023-05-14T16:18:53;18.70;99.90
3684;DHT22;1858;48.716;9.648;2023-05-14T16:21:22;18.70;99.90
3684;DHT22;1858;48.716;9.648;2023-05-14T16:23:50;18.70;99.90